sensor_id;sensor_type;location;lat;lon;timestamp;P1;durP1;ratioP1;P2;durP2;ratioP2
57241;SDS011;43095;53.302;5.786;2022-07-29T00:00:52;4.68;;;1.60;;
57241;SDS011;43095;53.302;5.786;2022-07-29T00:03:36;4.97;;;1.92;;
57241;SDS011;43095;53.302;5.786;2022-07-29T00:06:21;4.72;;;1.58;;
57241;SDS011;43095;53.302;5.786;2022-07-29T00:09:06;2.85;;;1.90;;
57241;SDS011;43095;53.302;5.786;2022-07-29T00:11:50;2.80;;;1.80;;
57241;SDS011;43095;53.302;5.786;2022-07-29T00:14:35;4.13;;;2.00;;
57241;SDS011;43095;53.302;5.786;2022-07-29T00:17:19;5.30;;;1.80;;
57241;SDS011;43095;53.302;5.786;2022-07-29T00:20:04;3.85;;;1.67;;
57241;SDS011;43095;53.302;5.786;2022-07-29T00:22:49;3.42;;;2.10;;
57241;SDS011;43095;53.302;5.786;2022-07-29T00:25:34;4.28;;;1.95;;
57241;SDS011;43095;53.302;5.786;2022-07-29T00:28:19;9.82;;;2.63;;
57241;SDS011;43095;53.302;5.786;2022-07-29T00:31:03;4.43;;;1.90;;
57241;SDS011;43095;53.302;5.786;2022-07-29T00:33:48;6.05;;;1.95;;
57241;SDS011;43095;53.302;5.786;2022-07-29T00:36:33;4.95;;;2.10;;
57241;SDS011;43095;53.302;5.786;2022-07-29T00:39:17;4.85;;;2.17;;
57241;SDS011;43095;53.302;5.786;2022-07-29T00:42:05;7.20;;;2.25;;
57241;SDS011;43095;53.302;5.786;2022-07-29T00:44:49;5.70;;;1.80;;
57241;SDS011;43095;53.302;5.786;2022-07-29T00:47:34;4.20;;;1.73;;
57241;SDS011;43095;53.302;5.786;2022-07-29T00:50:19;5.55;;;2.10;;
57241;SDS011;43095;53.302;5.786;2022-07-29T00:53:03;4.55;;;2.08;;
57241;SDS011;43095;53.302;5.786;2022-07-29T00:55:50;4.40;;;1.92;;
57241;SDS011;43095;53.302;5.786;2022-07-29T00:58:38;3.85;;;2.03;;
57241;SDS011;43095;53.302;5.786;2022-07-29T01:01:23;3.80;;;1.63;;
57241;SDS011;43095;53.302;5.786;2022-07-29T01:04:07;5.85;;;2.28;;
57241;SDS011;43095;53.302;5.786;2022-07-29T01:06:52;5.53;;;1.83;;
57241;SDS011;43095;53.302;5.786;2022-07-29T01:09:37;3.95;;;1.65;;
57241;SDS011;43095;53.302;5.786;2022-07-29T01:12:25;3.33;;;1.73;;
57241;SDS011;43095;53.302;5.786;2022-07-29T01:15:11;4.10;;;1.40;;
57241;SDS011;43095;53.302;5.786;2022-07-29T01:30:55;2.20;;;1.50;;
57241;SDS011;43095;53.302;5.786;2022-07-29T01:33:41;4.18;;;1.52;;
57241;SDS011;43095;53.302;5.786;2022-07-29T01:42:24;4.35;;;2.17;;
57241;SDS011;43095;53.302;5.786;2022-07-29T01:45:21;7.00;;;1.67;;
57241;SDS011;43095;53.302;5.786;2022-07-29T01:48:16;6.60;;;2.03;;
57241;SDS011;43095;53.302;5.786;2022-07-29T01:51:05;5.47;;;3.07;;
57241;SDS011;43095;53.302;5.786;2022-07-29T01:56:59;6.72;;;3.00;;
57241;SDS011;43095;53.302;5.786;2022-07-29T01:59:45;7.53;;;2.63;;
57241;SDS011;43095;53.302;5.786;2022-07-29T02:02:30;6.90;;;2.28;;
57241;SDS011;43095;53.302;5.786;2022-07-29T02:05:17;6.10;;;2.47;;
57241;SDS011;43095;53.302;5.786;2022-07-29T02:08:02;3.55;;;1.90;;
57241;SDS011;43095;53.302;5.786;2022-07-29T02:10:48;8.45;;;2.40;;
57241;SDS011;43095;53.302;5.786;2022-07-29T02:13:35;6.70;;;1.98;;
57241;SDS011;43095;53.302;5.786;2022-07-29T02:16:21;3.42;;;2.00;;
57241;SDS011;43095;53.302;5.786;2022-07-29T02:19:06;5.35;;;1.92;;
57241;SDS011;43095;53.302;5.786;2022-07-29T02:21:53;4.63;;;1.88;;
57241;SDS011;43095;53.302;5.786;2022-07-29T02:24:39;4.05;;;2.05;;
57241;SDS011;43095;53.302;5.786;2022-07-29T02:27:24;2.90;;;2.17;;
57241;SDS011;43095;53.302;5.786;2022-07-29T02:30:10;5.90;;;2.13;;
57241;SDS011;43095;53.302;5.786;2022-07-29T02:32:56;4.45;;;2.00;;
57241;SDS011;43095;53.302;5.786;2022-07-29T02:35:40;3.05;;;1.83;;
57241;SDS011;43095;53.302;5.786;2022-07-29T02:38:25;7.85;;;2.50;;
57241;SDS011;43095;53.302;5.786;2022-07-29T02:41:50;6.55;;;2.28;;
57241;SDS011;43095;53.302;5.786;2022-07-29T02:44:36;6.97;;;2.10;;
57241;SDS011;43095;53.302;5.786;2022-07-29T02:47:27;7.35;;;2.97;;
57241;SDS011;43095;53.302;5.786;2022-07-29T02:50:17;5.05;;;2.42;;
57241;SDS011;43095;53.302;5.786;2022-07-29T02:53:07;4.88;;;2.65;;
57241;SDS011;43095;53.302;5.786;2022-07-29T02:55:58;3.63;;;2.40;;
57241;SDS011;43095;53.302;5.786;2022-07-29T02:59:06;5.30;;;2.72;;
57241;SDS011;43095;53.302;5.786;2022-07-29T03:01:54;5.57;;;2.70;;
57241;SDS011;43095;53.302;5.786;2022-07-29T03:04:40;6.90;;;2.53;;
57241;SDS011;43095;53.302;5.786;2022-07-29T03:07:25;5.05;;;2.33;;
57241;SDS011;43095;53.302;5.786;2022-07-29T03:10:11;6.82;;;2.22;;
57241;SDS011;43095;53.302;5.786;2022-07-29T03:12:57;6.07;;;2.15;;
57241;SDS011;43095;53.302;5.786;2022-07-29T03:15:42;5.45;;;2.42;;
57241;SDS011;43095;53.302;5.786;2022-07-29T03:18:28;7.80;;;3.00;;
57241;SDS011;43095;53.302;5.786;2022-07-29T03:21:13;5.50;;;2.63;;
57241;SDS011;43095;53.302;5.786;2022-07-29T03:23:57;6.88;;;1.95;;
57241;SDS011;43095;53.302;5.786;2022-07-29T03:26:42;5.18;;;2.00;;
57241;SDS011;43095;53.302;5.786;2022-07-29T03:29:27;5.40;;;2.50;;
57241;SDS011;43095;53.302;5.786;2022-07-29T03:32:11;5.07;;;2.47;;
57241;SDS011;43095;53.302;5.786;2022-07-29T03:34:56;6.97;;;2.53;;
57241;SDS011;43095;53.302;5.786;2022-07-29T03:37:41;7.88;;;1.70;;
57241;SDS011;43095;53.302;5.786;2022-07-29T03:40:28;7.40;;;2.28;;
57241;SDS011;43095;53.302;5.786;2022-07-29T03:43:15;4.97;;;1.55;;
57241;SDS011;43095;53.302;5.786;2022-07-29T03:46:01;7.90;;;1.80;;
57241;SDS011;43095;53.302;5.786;2022-07-29T03:48:50;3.63;;;1.35;;
57241;SDS011;43095;53.302;5.786;2022-07-29T03:51:40;7.10;;;1.92;;
57241;SDS011;43095;53.302;5.786;2022-07-29T03:54:24;5.85;;;1.70;;
57241;SDS011;43095;53.302;5.786;2022-07-29T03:57:10;5.40;;;1.60;;
57241;SDS011;43095;53.302;5.786;2022-07-29T03:59:55;6.97;;;1.85;;
57241;SDS011;43095;53.302;5.786;2022-07-29T04:02:40;6.05;;;1.73;;
57241;SDS011;43095;53.302;5.786;2022-07-29T04:05:28;8.98;;;2.00;;
57241;SDS011;43095;53.302;5.786;2022-07-29T04:08:13;3.97;;;2.10;;
57241;SDS011;43095;53.302;5.786;2022-07-29T04:10:58;4.63;;;1.70;;
57241;SDS011;43095;53.302;5.786;2022-07-29T04:13:43;6.68;;;1.85;;
57241;SDS011;43095;53.302;5.786;2022-07-29T04:16:27;4.95;;;1.40;;
57241;SDS011;43095;53.302;5.786;2022-07-29T04:19:12;4.20;;;1.33;;
57241;SDS011;43095;53.302;5.786;2022-07-29T04:21:57;6.38;;;1.60;;
57241;SDS011;43095;53.302;5.786;2022-07-29T04:24:43;5.70;;;1.90;;
57241;SDS011;43095;53.302;5.786;2022-07-29T04:27:27;6.47;;;1.75;;
57241;SDS011;43095;53.302;5.786;2022-07-29T04:30:12;5.40;;;2.03;;
57241;SDS011;43095;53.302;5.786;2022-07-29T04:32:56;2.92;;;1.50;;
57241;SDS011;43095;53.302;5.786;2022-07-29T04:35:41;4.63;;;1.80;;
57241;SDS011;43095;53.302;5.786;2022-07-29T04:38:26;6.20;;;1.50;;
57241;SDS011;43095;53.302;5.786;2022-07-29T04:41:10;4.88;;;1.67;;
57241;SDS011;43095;53.302;5.786;2022-07-29T04:43:55;5.88;;;1.50;;
57241;SDS011;43095;53.302;5.786;2022-07-29T04:46:39;8.40;;;1.55;;
57241;SDS011;43095;53.302;5.786;2022-07-29T04:49:24;7.50;;;1.75;;
57241;SDS011;43095;53.302;5.786;2022-07-29T04:52:08;6.07;;;1.75;;
57241;SDS011;43095;53.302;5.786;2022-07-29T04:54:53;5.07;;;1.58;;
57241;SDS011;43095;53.302;5.786;2022-07-29T04:57:37;6.68;;;1.63;;
57241;SDS011;43095;53.302;5.786;2022-07-29T05:00:22;5.68;;;1.55;;
57241;SDS011;43095;53.302;5.786;2022-07-29T05:03:07;4.90;;;1.67;;
57241;SDS011;43095;53.302;5.786;2022-07-29T05:05:51;4.15;;;1.60;;
57241;SDS011;43095;53.302;5.786;2022-07-29T05:08:35;4.53;;;1.85;;
57241;SDS011;43095;53.302;5.786;2022-07-29T05:11:20;3.78;;;1.80;;
57241;SDS011;43095;53.302;5.786;2022-07-29T05:14:05;4.35;;;1.60;;
57241;SDS011;43095;53.302;5.786;2022-07-29T05:16:49;5.85;;;1.55;;
57241;SDS011;43095;53.302;5.786;2022-07-29T05:19:35;5.55;;;1.65;;
57241;SDS011;43095;53.302;5.786;2022-07-29T05:22:19;6.22;;;1.75;;
57241;SDS011;43095;53.302;5.786;2022-07-29T05:25:07;3.60;;;1.38;;
57241;SDS011;43095;53.302;5.786;2022-07-29T05:27:53;5.50;;;1.77;;
57241;SDS011;43095;53.302;5.786;2022-07-29T05:30:38;5.95;;;1.77;;
57241;SDS011;43095;53.302;5.786;2022-07-29T05:33:22;4.20;;;1.50;;
57241;SDS011;43095;53.302;5.786;2022-07-29T05:36:07;4.63;;;1.77;;
57241;SDS011;43095;53.302;5.786;2022-07-29T05:38:52;5.97;;;1.63;;
57241;SDS011;43095;53.302;5.786;2022-07-29T05:41:36;6.00;;;1.40;;
57241;SDS011;43095;53.302;5.786;2022-07-29T05:44:21;6.07;;;1.58;;
57241;SDS011;43095;53.302;5.786;2022-07-29T05:47:05;6.90;;;1.60;;
57241;SDS011;43095;53.302;5.786;2022-07-29T05:49:50;4.38;;;1.60;;
57241;SDS011;43095;53.302;5.786;2022-07-29T05:52:35;3.63;;;1.60;;
57241;SDS011;43095;53.302;5.786;2022-07-29T05:55:19;5.03;;;1.52;;
57241;SDS011;43095;53.302;5.786;2022-07-29T05:58:04;4.07;;;1.40;;
57241;SDS011;43095;53.302;5.786;2022-07-29T06:00:49;2.65;;;1.20;;
57241;SDS011;43095;53.302;5.786;2022-07-29T06:03:33;3.58;;;1.33;;
57241;SDS011;43095;53.302;5.786;2022-07-29T06:06:18;3.58;;;1.30;;
57241;SDS011;43095;53.302;5.786;2022-07-29T06:09:03;3.88;;;1.30;;
57241;SDS011;43095;53.302;5.786;2022-07-29T06:11:47;10.23;;;2.08;;
57241;SDS011;43095;53.302;5.786;2022-07-29T06:14:32;7.60;;;1.92;;
57241;SDS011;43095;53.302;5.786;2022-07-29T06:17:16;8.32;;;1.98;;
57241;SDS011;43095;53.302;5.786;2022-07-29T06:20:01;4.53;;;1.33;;
57241;SDS011;43095;53.302;5.786;2022-07-29T06:22:46;7.35;;;1.50;;
57241;SDS011;43095;53.302;5.786;2022-07-29T06:25:31;5.72;;;1.30;;
57241;SDS011;43095;53.302;5.786;2022-07-29T06:28:20;5.20;;;1.30;;
57241;SDS011;43095;53.302;5.786;2022-07-29T06:31:05;4.40;;;1.58;;
57241;SDS011;43095;53.302;5.786;2022-07-29T06:33:49;4.82;;;1.42;;
57241;SDS011;43095;53.302;5.786;2022-07-29T06:36:35;7.72;;;2.03;;
57241;SDS011;43095;53.302;5.786;2022-07-29T06:39:20;5.15;;;1.20;;
57241;SDS011;43095;53.302;5.786;2022-07-29T06:42:05;4.70;;;1.70;;
57241;SDS011;43095;53.302;5.786;2022-07-29T06:44:49;5.07;;;1.40;;
57241;SDS011;43095;53.302;5.786;2022-07-29T06:47:34;5.00;;;1.60;;
57241;SDS011;43095;53.302;5.786;2022-07-29T06:50:18;6.00;;;1.27;;
57241;SDS011;43095;53.302;5.786;2022-07-29T06:53:03;5.07;;;1.40;;
57241;SDS011;43095;53.302;5.786;2022-07-29T06:55:48;5.55;;;1.95;;
57241;SDS011;43095;53.302;5.786;2022-07-29T06:58:32;4.80;;;1.40;;
57241;SDS011;43095;53.302;5.786;2022-07-29T07:01:17;5.38;;;1.20;;
57241;SDS011;43095;53.302;5.786;2022-07-29T07:04:01;3.55;;;1.42;;
57241;SDS011;43095;53.302;5.786;2022-07-29T07:06:46;10.02;;;1.83;;
57241;SDS011;43095;53.302;5.786;2022-07-29T07:09:30;5.68;;;1.25;;
57241;SDS011;43095;53.302;5.786;2022-07-29T07:12:15;3.53;;;1.20;;
57241;SDS011;43095;53.302;5.786;2022-07-29T07:15:00;13.27;;;1.80;;
57241;SDS011;43095;53.302;5.786;2022-07-29T07:17:45;4.63;;;1.35;;
57241;SDS011;43095;53.302;5.786;2022-07-29T07:20:29;4.53;;;1.73;;
57241;SDS011;43095;53.302;5.786;2022-07-29T07:23:14;9.77;;;2.08;;
57241;SDS011;43095;53.302;5.786;2022-07-29T07:25:59;5.88;;;1.30;;
57241;SDS011;43095;53.302;5.786;2022-07-29T07:28:43;6.13;;;1.88;;
57241;SDS011;43095;53.302;5.786;2022-07-29T07:31:28;6.65;;;1.40;;
57241;SDS011;43095;53.302;5.786;2022-07-29T07:34:12;8.68;;;1.88;;
57241;SDS011;43095;53.302;5.786;2022-07-29T07:36:57;5.22;;;1.48;;
57241;SDS011;43095;53.302;5.786;2022-07-29T07:39:41;7.32;;;2.35;;
57241;SDS011;43095;53.302;5.786;2022-07-29T07:42:26;6.93;;;1.70;;
57241;SDS011;43095;53.302;5.786;2022-07-29T07:45:10;5.95;;;1.83;;
57241;SDS011;43095;53.302;5.786;2022-07-29T07:47:55;6.40;;;1.55;;
57241;SDS011;43095;53.302;5.786;2022-07-29T07:50:40;4.05;;;1.60;;
57241;SDS011;43095;53.302;5.786;2022-07-29T07:53:24;6.38;;;1.63;;
57241;SDS011;43095;53.302;5.786;2022-07-29T07:56:09;8.00;;;1.98;;
57241;SDS011;43095;53.302;5.786;2022-07-29T07:58:54;5.22;;;1.58;;
57241;SDS011;43095;53.302;5.786;2022-07-29T08:01:38;6.28;;;1.90;;
57241;SDS011;43095;53.302;5.786;2022-07-29T08:04:23;7.07;;;1.27;;
57241;SDS011;43095;53.302;5.786;2022-07-29T08:07:08;4.53;;;1.80;;
57241;SDS011;43095;53.302;5.786;2022-07-29T08:09:53;9.65;;;1.85;;
57241;SDS011;43095;53.302;5.786;2022-07-29T08:12:37;4.00;;;1.60;;
57241;SDS011;43095;53.302;5.786;2022-07-29T08:15:22;4.70;;;1.40;;
57241;SDS011;43095;53.302;5.786;2022-07-29T08:18:07;8.25;;;2.03;;
57241;SDS011;43095;53.302;5.786;2022-07-29T08:20:51;5.40;;;1.40;;
57241;SDS011;43095;53.302;5.786;2022-07-29T08:23:35;5.57;;;1.80;;
57241;SDS011;43095;53.302;5.786;2022-07-29T08:26:22;3.33;;;1.42;;
57241;SDS011;43095;53.302;5.786;2022-07-29T08:29:07;4.50;;;1.83;;
57241;SDS011;43095;53.302;5.786;2022-07-29T08:31:52;4.40;;;1.30;;
57241;SDS011;43095;53.302;5.786;2022-07-29T08:34:36;7.55;;;1.58;;
57241;SDS011;43095;53.302;5.786;2022-07-29T08:37:21;5.50;;;1.70;;
57241;SDS011;43095;53.302;5.786;2022-07-29T08:40:05;4.88;;;1.33;;
57241;SDS011;43095;53.302;5.786;2022-07-29T08:42:50;9.18;;;1.88;;
57241;SDS011;43095;53.302;5.786;2022-07-29T08:48:30;5.10;;;1.52;;
57241;SDS011;43095;53.302;5.786;2022-07-29T08:51:16;6.93;;;1.95;;
57241;SDS011;43095;53.302;5.786;2022-07-29T08:54:02;6.60;;;2.10;;
57241;SDS011;43095;53.302;5.786;2022-07-29T08:56:50;8.95;;;1.88;;
57241;SDS011;43095;53.302;5.786;2022-07-29T08:59:35;6.13;;;1.58;;
57241;SDS011;43095;53.302;5.786;2022-07-29T09:02:22;7.35;;;1.70;;
57241;SDS011;43095;53.302;5.786;2022-07-29T09:05:07;6.97;;;2.35;;
57241;SDS011;43095;53.302;5.786;2022-07-29T09:07:52;7.18;;;1.77;;
57241;SDS011;43095;53.302;5.786;2022-07-29T09:10:36;7.30;;;1.88;;
57241;SDS011;43095;53.302;5.786;2022-07-29T09:13:21;7.90;;;2.13;;
57241;SDS011;43095;53.302;5.786;2022-07-29T09:16:06;8.73;;;1.85;;
57241;SDS011;43095;53.302;5.786;2022-07-29T09:18:51;4.57;;;1.75;;
57241;SDS011;43095;53.302;5.786;2022-07-29T09:21:40;9.68;;;1.67;;
57241;SDS011;43095;53.302;5.786;2022-07-29T09:24:43;4.40;;;1.50;;
57241;SDS011;43095;53.302;5.786;2022-07-29T09:27:30;6.63;;;2.10;;
57241;SDS011;43095;53.302;5.786;2022-07-29T09:30:15;9.40;;;2.08;;
57241;SDS011;43095;53.302;5.786;2022-07-29T09:33:01;6.90;;;2.00;;
57241;SDS011;43095;53.302;5.786;2022-07-29T09:35:58;6.47;;;1.63;;
57241;SDS011;43095;53.302;5.786;2022-07-29T09:38:58;6.25;;;2.03;;
57241;SDS011;43095;53.302;5.786;2022-07-29T09:44:51;6.20;;;1.92;;
57241;SDS011;43095;53.302;5.786;2022-07-29T09:47:44;8.00;;;2.42;;
57241;SDS011;43095;53.302;5.786;2022-07-29T09:50:37;4.93;;;1.77;;
57241;SDS011;43095;53.302;5.786;2022-07-29T09:56:28;9.10;;;2.20;;
57241;SDS011;43095;53.302;5.786;2022-07-29T09:59:25;9.80;;;2.35;;
57241;SDS011;43095;53.302;5.786;2022-07-29T10:02:11;10.07;;;2.15;;
57241;SDS011;43095;53.302;5.786;2022-07-29T10:04:57;6.97;;;1.88;;
57241;SDS011;43095;53.302;5.786;2022-07-29T10:07:45;6.60;;;2.10;;
57241;SDS011;43095;53.302;5.786;2022-07-29T10:10:33;10.07;;;2.50;;
57241;SDS011;43095;53.302;5.786;2022-07-29T10:13:18;6.22;;;2.20;;
57241;SDS011;43095;53.302;5.786;2022-07-29T10:16:03;7.03;;;2.08;;
57241;SDS011;43095;53.302;5.786;2022-07-29T10:18:48;7.53;;;2.40;;
57241;SDS011;43095;53.302;5.786;2022-07-29T10:21:34;6.57;;;2.55;;
57241;SDS011;43095;53.302;5.786;2022-07-29T10:24:21;9.02;;;2.10;;
57241;SDS011;43095;53.302;5.786;2022-07-29T10:27:06;10.07;;;2.47;;
57241;SDS011;43095;53.302;5.786;2022-07-29T10:29:53;7.80;;;2.03;;
57241;SDS011;43095;53.302;5.786;2022-07-29T10:41:49;12.27;;;2.80;;
57241;SDS011;43095;53.302;5.786;2022-07-29T10:44:50;8.10;;;2.53;;
57241;SDS011;43095;53.302;5.786;2022-07-29T10:47:35;10.00;;;2.67;;
57241;SDS011;43095;53.302;5.786;2022-07-29T10:50:20;8.77;;;2.08;;
57241;SDS011;43095;53.302;5.786;2022-07-29T10:53:05;6.97;;;2.20;;
57241;SDS011;43095;53.302;5.786;2022-07-29T10:55:50;5.47;;;2.22;;
57241;SDS011;43095;53.302;5.786;2022-07-29T10:58:36;6.03;;;2.28;;
57241;SDS011;43095;53.302;5.786;2022-07-29T11:01:30;7.82;;;2.20;;
57241;SDS011;43095;53.302;5.786;2022-07-29T11:04:15;6.40;;;2.80;;
57241;SDS011;43095;53.302;5.786;2022-07-29T11:10:18;5.65;;;2.42;;
57241;SDS011;43095;53.302;5.786;2022-07-29T11:12:56;5.35;;;2.47;;
57241;SDS011;43095;53.302;5.786;2022-07-29T11:15:52;10.07;;;2.53;;
57241;SDS011;43095;53.302;5.786;2022-07-29T11:21:56;9.00;;;2.60;;
57241;SDS011;43095;53.302;5.786;2022-07-29T11:24:41;9.15;;;2.67;;
57241;SDS011;43095;53.302;5.786;2022-07-29T11:27:30;6.13;;;2.90;;
57241;SDS011;43095;53.302;5.786;2022-07-29T11:30:15;7.97;;;2.60;;
57241;SDS011;43095;53.302;5.786;2022-07-29T11:32:59;8.20;;;3.40;;
57241;SDS011;43095;53.302;5.786;2022-07-29T11:35:48;4.75;;;2.45;;
57241;SDS011;43095;53.302;5.786;2022-07-29T11:39:24;7.60;;;3.50;;
57241;SDS011;43095;53.302;5.786;2022-07-29T11:45:10;10.88;;;2.95;;
57241;SDS011;43095;53.302;5.786;2022-07-29T11:47:57;5.40;;;2.38;;
57241;SDS011;43095;53.302;5.786;2022-07-29T11:50:42;6.07;;;2.70;;
57241;SDS011;43095;53.302;5.786;2022-07-29T11:53:27;7.70;;;3.00;;
57241;SDS011;43095;53.302;5.786;2022-07-29T11:56:11;7.75;;;3.70;;
57241;SDS011;43095;53.302;5.786;2022-07-29T11:59:03;5.53;;;2.60;;
57241;SDS011;43095;53.302;5.786;2022-07-29T12:01:56;7.30;;;2.78;;
57241;SDS011;43095;53.302;5.786;2022-07-29T12:04:54;6.63;;;2.80;;
57241;SDS011;43095;53.302;5.786;2022-07-29T12:07:40;11.55;;;3.25;;
57241;SDS011;43095;53.302;5.786;2022-07-29T12:10:29;10.15;;;2.90;;
57241;SDS011;43095;53.302;5.786;2022-07-29T12:13:15;10.18;;;2.85;;
57241;SDS011;43095;53.302;5.786;2022-07-29T12:16:01;14.52;;;3.88;;
57241;SDS011;43095;53.302;5.786;2022-07-29T12:18:59;13.23;;;3.60;;
57241;SDS011;43095;53.302;5.786;2022-07-29T12:21:48;12.50;;;4.00;;
57241;SDS011;43095;53.302;5.786;2022-07-29T12:24:42;10.30;;;2.92;;
57241;SDS011;43095;53.302;5.786;2022-07-29T12:27:27;13.90;;;3.67;;
57241;SDS011;43095;53.302;5.786;2022-07-29T12:30:13;9.43;;;3.10;;
57241;SDS011;43095;53.302;5.786;2022-07-29T12:32:59;11.10;;;3.72;;
57241;SDS011;43095;53.302;5.786;2022-07-29T12:35:45;12.00;;;3.33;;
57241;SDS011;43095;53.302;5.786;2022-07-29T12:38:31;11.30;;;3.45;;
57241;SDS011;43095;53.302;5.786;2022-07-29T12:41:20;13.13;;;3.97;;
57241;SDS011;43095;53.302;5.786;2022-07-29T12:44:04;14.10;;;4.32;;
57241;SDS011;43095;53.302;5.786;2022-07-29T12:47:02;12.43;;;4.00;;
57241;SDS011;43095;53.302;5.786;2022-07-29T12:49:48;11.20;;;3.55;;
57241;SDS011;43095;53.302;5.786;2022-07-29T12:52:33;11.40;;;3.50;;
57241;SDS011;43095;53.302;5.786;2022-07-29T13:01:19;12.40;;;3.35;;
57241;SDS011;43095;53.302;5.786;2022-07-29T13:04:04;9.90;;;3.60;;
57241;SDS011;43095;53.302;5.786;2022-07-29T13:06:48;10.52;;;3.70;;
57241;SDS011;43095;53.302;5.786;2022-07-29T13:09:50;11.10;;;3.70;;
57241;SDS011;43095;53.302;5.786;2022-07-29T13:12:34;13.43;;;3.83;;
57241;SDS011;43095;53.302;5.786;2022-07-29T13:15:19;12.63;;;3.72;;
57241;SDS011;43095;53.302;5.786;2022-07-29T13:18:03;11.55;;;3.42;;
57241;SDS011;43095;53.302;5.786;2022-07-29T13:20:48;9.98;;;3.00;;
57241;SDS011;43095;53.302;5.786;2022-07-29T13:23:33;13.50;;;3.95;;
57241;SDS011;43095;53.302;5.786;2022-07-29T13:26:17;10.82;;;3.03;;
57241;SDS011;43095;53.302;5.786;2022-07-29T13:29:03;8.90;;;3.92;;
57241;SDS011;43095;53.302;5.786;2022-07-29T13:31:48;9.35;;;3.70;;
57241;SDS011;43095;53.302;5.786;2022-07-29T13:34:33;13.88;;;4.13;;
57241;SDS011;43095;53.302;5.786;2022-07-29T13:37:18;10.48;;;3.28;;
57241;SDS011;43095;53.302;5.786;2022-07-29T13:40:03;12.23;;;5.28;;
57241;SDS011;43095;53.302;5.786;2022-07-29T13:42:49;13.80;;;4.30;;
57241;SDS011;43095;53.302;5.786;2022-07-29T13:45:33;7.68;;;4.40;;
57241;SDS011;43095;53.302;5.786;2022-07-29T13:48:18;12.68;;;4.35;;
57241;SDS011;43095;53.302;5.786;2022-07-29T13:51:02;12.13;;;4.13;;
57241;SDS011;43095;53.302;5.786;2022-07-29T13:53:47;6.63;;;3.55;;
57241;SDS011;43095;53.302;5.786;2022-07-29T13:56:31;13.27;;;4.95;;
57241;SDS011;43095;53.302;5.786;2022-07-29T13:59:16;13.07;;;4.60;;
57241;SDS011;43095;53.302;5.786;2022-07-29T14:02:00;14.20;;;4.05;;
57241;SDS011;43095;53.302;5.786;2022-07-29T14:04:45;9.55;;;3.53;;
57241;SDS011;43095;53.302;5.786;2022-07-29T14:07:30;10.63;;;4.30;;
57241;SDS011;43095;53.302;5.786;2022-07-29T14:10:15;9.38;;;4.40;;
57241;SDS011;43095;53.302;5.786;2022-07-29T14:12:59;6.57;;;3.53;;
57241;SDS011;43095;53.302;5.786;2022-07-29T14:15:44;8.68;;;3.50;;
57241;SDS011;43095;53.302;5.786;2022-07-29T14:18:28;7.95;;;4.18;;
57241;SDS011;43095;53.302;5.786;2022-07-29T14:21:13;11.93;;;4.03;;
57241;SDS011;43095;53.302;5.786;2022-07-29T14:24:00;7.93;;;4.75;;
57241;SDS011;43095;53.302;5.786;2022-07-29T14:26:45;5.80;;;3.20;;
57241;SDS011;43095;53.302;5.786;2022-07-29T14:29:30;7.40;;;3.42;;
57241;SDS011;43095;53.302;5.786;2022-07-29T14:32:14;6.10;;;3.30;;
57241;SDS011;43095;53.302;5.786;2022-07-29T14:34:59;6.95;;;2.70;;
57241;SDS011;43095;53.302;5.786;2022-07-29T14:37:43;9.35;;;3.85;;
57241;SDS011;43095;53.302;5.786;2022-07-29T14:40:28;7.95;;;3.65;;
57241;SDS011;43095;53.302;5.786;2022-07-29T14:43:13;9.80;;;3.20;;
57241;SDS011;43095;53.302;5.786;2022-07-29T14:45:58;8.40;;;3.15;;
57241;SDS011;43095;53.302;5.786;2022-07-29T14:48:42;17.35;;;4.05;;
57241;SDS011;43095;53.302;5.786;2022-07-29T14:51:27;14.25;;;3.75;;
57241;SDS011;43095;53.302;5.786;2022-07-29T14:54:12;10.35;;;3.05;;
57241;SDS011;43095;53.302;5.786;2022-07-29T14:56:56;12.50;;;3.83;;
57241;SDS011;43095;53.302;5.786;2022-07-29T14:59:41;11.98;;;3.45;;
57241;SDS011;43095;53.302;5.786;2022-07-29T15:02:26;13.35;;;4.30;;
57241;SDS011;43095;53.302;5.786;2022-07-29T15:05:10;9.30;;;3.25;;
57241;SDS011;43095;53.302;5.786;2022-07-29T15:07:55;10.65;;;3.53;;
57241;SDS011;43095;53.302;5.786;2022-07-29T15:10:39;11.18;;;3.92;;
57241;SDS011;43095;53.302;5.786;2022-07-29T15:13:24;10.93;;;3.78;;
57241;SDS011;43095;53.302;5.786;2022-07-29T15:16:09;10.13;;;3.20;;
57241;SDS011;43095;53.302;5.786;2022-07-29T15:18:53;10.45;;;3.67;;
57241;SDS011;43095;53.302;5.786;2022-07-29T15:21:38;10.65;;;3.55;;
57241;SDS011;43095;53.302;5.786;2022-07-29T15:24:22;11.75;;;3.78;;
57241;SDS011;43095;53.302;5.786;2022-07-29T15:27:07;16.45;;;3.72;;
57241;SDS011;43095;53.302;5.786;2022-07-29T15:29:57;10.10;;;3.17;;
57241;SDS011;43095;53.302;5.786;2022-07-29T15:32:45;12.02;;;3.50;;
57241;SDS011;43095;53.302;5.786;2022-07-29T15:35:30;10.55;;;3.40;;
57241;SDS011;43095;53.302;5.786;2022-07-29T15:38:15;8.82;;;3.28;;
57241;SDS011;43095;53.302;5.786;2022-07-29T15:40:59;9.55;;;3.75;;
57241;SDS011;43095;53.302;5.786;2022-07-29T15:43:44;11.40;;;3.75;;
57241;SDS011;43095;53.302;5.786;2022-07-29T15:46:31;9.20;;;3.58;;
57241;SDS011;43095;53.302;5.786;2022-07-29T15:49:35;11.90;;;3.38;;
57241;SDS011;43095;53.302;5.786;2022-07-29T15:52:20;10.23;;;3.58;;
57241;SDS011;43095;53.302;5.786;2022-07-29T15:55:05;13.98;;;4.07;;
57241;SDS011;43095;53.302;5.786;2022-07-29T15:57:50;7.60;;;3.42;;
57241;SDS011;43095;53.302;5.786;2022-07-29T16:00:35;10.85;;;4.00;;
57241;SDS011;43095;53.302;5.786;2022-07-29T16:03:19;11.60;;;3.85;;
57241;SDS011;43095;53.302;5.786;2022-07-29T16:06:05;9.25;;;3.40;;
57241;SDS011;43095;53.302;5.786;2022-07-29T16:08:50;9.98;;;3.28;;
57241;SDS011;43095;53.302;5.786;2022-07-29T16:11:34;11.30;;;3.40;;
57241;SDS011;43095;53.302;5.786;2022-07-29T16:14:19;8.93;;;3.17;;
57241;SDS011;43095;53.302;5.786;2022-07-29T16:17:03;15.50;;;3.60;;
57241;SDS011;43095;53.302;5.786;2022-07-29T16:19:48;10.15;;;3.65;;
57241;SDS011;43095;53.302;5.786;2022-07-29T16:22:33;13.10;;;3.13;;
57241;SDS011;43095;53.302;5.786;2022-07-29T16:25:18;10.60;;;3.45;;
57241;SDS011;43095;53.302;5.786;2022-07-29T16:28:02;11.57;;;3.65;;
57241;SDS011;43095;53.302;5.786;2022-07-29T16:30:47;10.43;;;3.22;;
57241;SDS011;43095;53.302;5.786;2022-07-29T16:33:33;13.43;;;3.88;;
57241;SDS011;43095;53.302;5.786;2022-07-29T16:36:18;12.18;;;3.83;;
57241;SDS011;43095;53.302;5.786;2022-07-29T16:39:02;10.25;;;4.03;;
57241;SDS011;43095;53.302;5.786;2022-07-29T16:41:48;14.73;;;3.60;;
57241;SDS011;43095;53.302;5.786;2022-07-29T16:44:33;7.55;;;3.28;;
57241;SDS011;43095;53.302;5.786;2022-07-29T16:47:17;10.38;;;3.97;;
57241;SDS011;43095;53.302;5.786;2022-07-29T16:50:02;10.93;;;3.25;;
57241;SDS011;43095;53.302;5.786;2022-07-29T16:52:47;8.85;;;3.17;;
57241;SDS011;43095;53.302;5.786;2022-07-29T16:55:31;8.50;;;3.33;;
57241;SDS011;43095;53.302;5.786;2022-07-29T16:58:16;12.98;;;3.60;;
57241;SDS011;43095;53.302;5.786;2022-07-29T17:01:01;12.70;;;3.45;;
57241;SDS011;43095;53.302;5.786;2022-07-29T17:03:46;12.32;;;4.13;;
57241;SDS011;43095;53.302;5.786;2022-07-29T17:06:50;7.50;;;3.17;;
57241;SDS011;43095;53.302;5.786;2022-07-29T17:09:35;8.70;;;3.35;;
57241;SDS011;43095;53.302;5.786;2022-07-29T17:12:20;14.00;;;3.67;;
57241;SDS011;43095;53.302;5.786;2022-07-29T17:15:05;8.10;;;2.92;;
57241;SDS011;43095;53.302;5.786;2022-07-29T17:17:51;11.32;;;4.13;;
57241;SDS011;43095;53.302;5.786;2022-07-29T17:20:36;9.77;;;3.33;;
57241;SDS011;43095;53.302;5.786;2022-07-29T17:23:20;11.85;;;3.47;;
57241;SDS011;43095;53.302;5.786;2022-07-29T17:26:05;15.55;;;4.60;;
57241;SDS011;43095;53.302;5.786;2022-07-29T17:28:50;10.32;;;2.92;;
57241;SDS011;43095;53.302;5.786;2022-07-29T17:31:35;9.38;;;3.42;;
57241;SDS011;43095;53.302;5.786;2022-07-29T17:34:20;10.63;;;3.47;;